Terminal Aerodrome Forecast
Issued by NWS Cleveland, OH

Home | Current Version | Previous Version | Text Only | Print | Product List | Glossary On
Versions: 1 2 3 4 5 6 7 8 9 10 11 12 13 14 15 16 17
560
FTUS41 KCLE 261724
TAFCAK
TAF
KCAK 261724Z 2618/2718 20004KT P6SM SCT035 BKN250
     FM270000 VRB03KT P6SM BKN250
     FM270900 VRB03KT P6SM BKN120
      TEMPO 2709/2713 5SM BR
     FM271600 22007KT P6SM OVC060=

USA.gov is the U.S. government's official web portal to all federal, state and local government web resources and services.